Arklow Rock — PBZM — position and weather

sailwx.info

Track history (hours):
 
Tides and Currents Weather Stations Pressure Air Temp Water Temp Dewpoint Dewpoint Depression Visibility Wind Speed Wind Dir Waves Ship Positions

Arklow Rock

Last reported at 2014-Oct-19 09:31 UTC. Time now 2014-Oct-21 10:30 UTC.
Position N 50°50' W 000°12'.

Length 90 m; draft 3.9 m.

Type: Cargo ship. MMSI: 246002000.

Date/timePositionNaut miles runAvg speedWind from/ knotsBaromVisibWave heightAir tempDewpointWater temp
2014-Oct-19 09:31N 50°50' W 000°12'1 1.3
2014-Oct-19 08:33N 50°50' W 000°14'6 5.2
2014-Oct-19 07:30N 50°44' W 000°13'55 8.0
2014-Oct-19 00:33N 50°56' E 001°13'10 9.7
2014-Oct-18 23:33N 51°02' E 001°25'10 9.6
2014-Oct-18 22:33N 51°09' E 001°36'9 8.9
2014-Oct-18 21:33N 51°15' E 001°46'9 8.9
2014-Oct-18 20:33N 51°22' E 001°54'9 9.2
2014-Oct-18 19:33N 51°30' E 002°02'10 9.6
2014-Oct-18 18:33N 51°37' E 002°12'1010.3
2014-Oct-18 17:33N 51°45' E 002°23'5510.8
2014-Oct-18 12:25N 52°20' E 003°33'910.6
2014-Oct-18 11:33N 52°23' E 003°47'1010.3
2014-Oct-18 10:33N 52°26' E 004°03'1010.1
2014-Oct-18 09:34N 52°28' E 004°19'1010.1
2014-Oct-18 08:34N 52°28' E 004°36'2 2.0
2014-Oct-18 07:33N 52°28' E 004°39'5 5.2
2014-Oct-18 06:33N 52°25' E 004°46'0 0.0
2014-Oct-18 05:33N 52°25' E 004°46'0 0.0
2014-Oct-18 04:33N 52°25' E 004°46'0 0.0
2014-Oct-18 03:33N 52°25' E 004°46'0 0.0
2014-Oct-18 02:33N 52°25' E 004°46'0 0.0
2014-Oct-18 01:33N 52°25' E 004°46'0 0.0
2014-Oct-18 00:33N 52°25' E 004°46'0 0.0
2014-Oct-17 23:33N 52°25' E 004°46'0 0.0
2014-Oct-17 22:33N 52°25' E 004°46'0 0.0
2014-Oct-17 21:32N 52°25' E 004°46'0 0.0
2014-Oct-17 20:32N 52°25' E 004°46'0 0.0
2014-Oct-17 19:32N 52°25' E 004°46'0 0.0
2014-Oct-17 18:32N 52°25' E 004°46'0 0.0
2014-Oct-17 17:32N 52°25' E 004°46'0 0.0
2014-Oct-17 16:32N 52°25' E 004°46'0 0.0
2014-Oct-17 15:33N 52°25' E 004°46'0 0.1
2014-Oct-17 14:32N 52°25' E 004°46'0 0.0
2014-Oct-17 13:32N 52°25' E 004°46'1 0.9
2014-Oct-17 12:34N 52°26' E 004°46'6 6.1
2014-Oct-17 11:34N 52°28' E 004°37'7 6.8
2014-Oct-17 10:33N 52°28' E 004°25'7 6.9
2014-Oct-17 09:33N 52°29' E 004°14'6 6.3
2014-Oct-17 08:33N 52°28' E 004°04'6 6.0
2014-Oct-17 07:31N 52°27' E 003°54'78 9.5
2014-Oct-16 23:19N 51°33' E 002°21'7 9.8
2014-Oct-16 22:33N 51°27' E 002°14'1010.1
2014-Oct-16 21:34N 51°18' E 002°07'10 9.5
2014-Oct-16 20:34N 51°11' E 001°56'10 9.7
2014-Oct-16 19:34N 51°05' E 001°44'1111.1
2014-Oct-16 18:34N 50°57' E 001°32'3612.0
2014-Oct-16 15:33N 50°29' E 000°56'1212.3
2014-Oct-16 14:33N 50°26' E 000°37'263 8.6
2014-Oct-15 08:09N 47°54' W 004°50'  
Track history (hours):
 
Tides and Currents Weather Stations Pressure Air Temp Water Temp Dewpoint Dewpoint Depression Visibility Wind Speed Wind Dir Waves Ship Positions

Arklow Rock

Last reported at 2014-Oct-19 09:31 UTC. Time now 2014-Oct-21 10:30 UTC.
Position N 50°50' W 000°12'.

Length 90 m; draft 3.9 m.

Type: Cargo ship. MMSI: 246002000.

Date/timePositionNaut miles runAvg speedWind from/ knotsBaromVisibWave heightAir tempDewpointWater temp
2014-Oct-19 09:31N 50°50' W 000°12'1 1.3
2014-Oct-19 08:33N 50°50' W 000°14'6 5.2
2014-Oct-19 07:30N 50°44' W 000°13'55 8.0
2014-Oct-19 00:33N 50°56' E 001°13'10 9.7
2014-Oct-18 23:33N 51°02' E 001°25'10 9.6
2014-Oct-18 22:33N 51°09' E 001°36'9 8.9
2014-Oct-18 21:33N 51°15' E 001°46'9 8.9
2014-Oct-18 20:33N 51°22' E 001°54'9 9.2
2014-Oct-18 19:33N 51°30' E 002°02'10 9.6
2014-Oct-18 18:33N 51°37' E 002°12'1010.3
2014-Oct-18 17:33N 51°45' E 002°23'5510.8
2014-Oct-18 12:25N 52°20' E 003°33'910.6
2014-Oct-18 11:33N 52°23' E 003°47'1010.3
2014-Oct-18 10:33N 52°26' E 004°03'1010.1
2014-Oct-18 09:34N 52°28' E 004°19'1010.1
2014-Oct-18 08:34N 52°28' E 004°36'2 2.0
2014-Oct-18 07:33N 52°28' E 004°39'5 5.2
2014-Oct-18 06:33N 52°25' E 004°46'0 0.0
2014-Oct-18 05:33N 52°25' E 004°46'0 0.0
2014-Oct-18 04:33N 52°25' E 004°46'0 0.0
2014-Oct-18 03:33N 52°25' E 004°46'0 0.0
2014-Oct-18 02:33N 52°25' E 004°46'0 0.0
2014-Oct-18 01:33N 52°25' E 004°46'0 0.0
2014-Oct-18 00:33N 52°25' E 004°46'0 0.0
2014-Oct-17 23:33N 52°25' E 004°46'0 0.0
2014-Oct-17 22:33N 52°25' E 004°46'0 0.0
2014-Oct-17 21:32N 52°25' E 004°46'0 0.0
2014-Oct-17 20:32N 52°25' E 004°46'0 0.0
2014-Oct-17 19:32N 52°25' E 004°46'0 0.0
2014-Oct-17 18:32N 52°25' E 004°46'0 0.0
2014-Oct-17 17:32N 52°25' E 004°46'0 0.0
2014-Oct-17 16:32N 52°25' E 004°46'0 0.0
2014-Oct-17 15:33N 52°25' E 004°46'0 0.1
2014-Oct-17 14:32N 52°25' E 004°46'0 0.0
2014-Oct-17 13:32N 52°25' E 004°46'1 0.9
2014-Oct-17 12:34N 52°26' E 004°46'6 6.1
2014-Oct-17 11:34N 52°28' E 004°37'7 6.8
2014-Oct-17 10:33N 52°28' E 004°25'7 6.9
2014-Oct-17 09:33N 52°29' E 004°14'6 6.3
2014-Oct-17 08:33N 52°28' E 004°04'6 6.0
2014-Oct-17 07:31N 52°27' E 003°54'78 9.5
2014-Oct-16 23:19N 51°33' E 002°21'7 9.8
2014-Oct-16 22:33N 51°27' E 002°14'1010.1
2014-Oct-16 21:34N 51°18' E 002°07'10 9.5
2014-Oct-16 20:34N 51°11' E 001°56'10 9.7
2014-Oct-16 19:34N 51°05' E 001°44'1111.1
2014-Oct-16 18:34N 50°57' E 001°32'3612.0
2014-Oct-16 15:33N 50°29' E 000°56'1212.3
2014-Oct-16 14:33N 50°26' E 000°37'263 8.6
2014-Oct-15 08:09N 47°54' W 004°50'  

Dump ship's entire track history